罗盘
风向 的 风向 的 风向 到 风向 090° Stuttgart Airport 7/25
风: 3 kt, 1 beaufort

2 kt

0 kt
改变
0 1.000 2.000 3.000 4.000 5.000
FEW 2.000 ft
METAR EDDS 170650Z 09003KT 050V130 9999 FEW020 17/13 Q1023 NOSIG

METAR Stuttgart Airport

Stuttgart Airport是Stuttgart,德国中的大型机场。 该机场有一条跑道: 7/25.

这份报告是针对2022年5月17日 08:50, 当地时间在Stuttgart Airport进行的。

机场观察

风向为090°,速度为3 kt。 风向在050°和130°之间变化。

可见度为10 km 或者更多。

有几云在2.000 ft的高度。 没有观察到天花板。

温度和风寒是17 °C。 露点为13 °C,相对湿度为77%。 海平面上的气压为1023 hPa (QNH)。

白天

今天,太阳从05:39升起,在20:59降落。 这适用于Stuttgart Airport,世界夏令时可能有所不同。 当地时间与世界标准时间之间的时差为+2 小时。 夏令时目前正在进行中。

公司介绍

在这个机场,你可以找到飞行学校。 本场上唯一已知的公司是Flugbetrieb Aero Beta。

体会

到Vliegles.nl去找飞行课程,跳伞和其他飞行体验。 浏览页面,了解Stuttgart Airport附近所有可用的活动。 你也可以使用搜索功能来寻找你所在地附近的特定飞行课程、跳伞或其他飞行体验。

您会帮助我们保持Metar-Taf.com正常运行吗?
您的贡献有助于网站的进一步开发并支付费用。

没有更多广告

您是捐款5美元还是更多?然后,我们将永远不会再向您展示广告,这是我们永恒的感谢!
捐赠前先登录

跑道

Id 标题 侧风 逆风
7/25 072°-252° 2 kt

逆风成分最大的方向会被突出显示,并用于横风计算。 这并不一定意味着这个方向在使用。

乌云

2.000 ft FEW 几云

温度 & 天气

温度 17 °C
露点 13 °C
相对湿度 77%
Kp-index 2  

公司介绍

新增公司

下载我们的应用程序

在您的手机和平板电脑上轻松访问所有航空天气。
有许多网站上没有的功能,如离线支持和个人机场列表。

Studio Eveline

Benalmádena
España